KOOA/OOA METAR and TAF weather

Enter ICAO airport designator
Station Type Date Time Source
KOOA METAR 2022/01/26 20:55 UTC NOAA

KOOA 262055Z AUTO 18013KT 10SM CLR M05/M13 A3026 RMK AO2 T10471133


Station Type Date Time Source
KOOA Decoded METAR 2022/01/26 20:55 UTC NOAA

Oskaloosa, Oskaloosa Municipal Airport, IA, United States (KOOA) 41-13-34N 092-29-37W
Jan 26, 2022 - 03:55 PM EST / 2022.01.26 2055 UTC
Wind: from the S (180 degrees) at 15 MPH (13 KT):0
Visibility: 10 mile(s):0
Sky conditions: clear
Temperature: 23.5 F (-4.7 C)
Windchill: 10 F (-12 C):1
Dew Point: 8.1 F (-13.3 C)
Relative Humidity: 50%
Pressure (altimeter): 30.26 in. Hg (1024 hPa)
ob: KOOA 262055Z AUTO 18013KT 10SM CLR M05/M13 A3026 RMK AO2 T10471133
cycle: 21

Station Type Date Time Source
KOOA TAF UTC NOAA

Error!

Example: see airport list